Time;durP1;ratioP1;P1;durP2;ratioP2;P2;SDS_P1;SDS_P2;PMS_P1;PMS_P2;Temp;Humidity;BMP_temperature;BMP_pressure;BME280_temperature;BME280_humidity;BME280_pressure;Samples;Min_cycle;Max_cycle;Signal;HPM_P1;HPM_P2
2023/04/20 00:00:36;;;;;;;2.90;1.83;;;10.30;41.50;;;;;;5015858;28;20201;-79
2023/04/20 00:03:02;;;;;;;2.73;1.90;;;10.30;41.80;;;;;;5034440;28;20273;-79
2023/04/20 00:05:30;;;;;;;3.07;1.43;;;10.30;41.60;;;;;;5034301;28;20248;-80
2023/04/20 00:07:57;;;;;;;4.05;1.58;;;10.30;41.40;;;;;;5015704;28;20212;-79
2023/04/20 00:10:23;;;;;;;3.95;2.10;;;10.30;41.70;;;;;;5034092;28;20205;-80
2023/04/20 00:12:49;;;;;;;2.80;1.83;;;10.30;41.80;;;;;;5015511;28;20176;-79
2023/04/20 00:15:14;;;;;;;6.80;2.13;;;10.30;41.90;;;;;;5016563;28;20568;-78
2023/04/20 00:17:40;;;;;;;2.07;1.63;;;10.30;41.90;;;;;;5015733;28;20892;-79
2023/04/20 00:20:08;;;;;;;9.43;2.07;;;10.30;41.80;;;;;;5021087;28;20701;-79
2023/04/20 00:22:34;;;;;;;4.57;1.90;;;10.30;42.10;;;;;;5033694;28;20178;-79
2023/04/20 00:25:00;;;;;;;2.80;1.98;;;10.30;41.80;;;;;;5033382;28;20689;-79
2023/04/20 00:27:27;;;;;;;5.95;2.60;;;10.20;42.40;;;;;;5015588;28;20212;-79
2023/04/20 00:29:53;;;;;;;2.90;1.92;;;10.30;41.90;;;;;;5015490;28;20320;-79
2023/04/20 00:32:18;;;;;;;3.60;2.00;;;10.30;42.20;;;;;;5015926;28;20264;-79
2023/04/20 00:34:47;;;;;;;4.75;1.70;;;10.30;42.30;;;;;;5014619;28;20170;-79
2023/04/20 00:37:12;;;;;;;4.30;2.10;;;10.30;42.00;;;;;;4999345;28;20530;-79
2023/04/20 00:39:40;;;;;;;5.03;1.60;;;10.30;42.00;;;;;;5015858;28;20177;-80
2023/04/20 00:42:08;;;;;;;3.35;2.10;;;10.30;42.00;;;;;;4999207;28;20181;-80
2023/04/20 00:44:34;;;;;;;2.83;1.77;;;10.40;42.40;;;;;;5015752;28;20647;-80
2023/04/20 00:47:00;;;;;;;5.00;2.07;;;10.40;42.10;;;;;;5014917;28;20209;-80
2023/04/20 00:49:28;;;;;;;3.60;1.95;;;10.50;42.20;;;;;;4999189;28;20631;-80
2023/04/20 00:51:56;;;;;;;2.58;1.50;;;10.50;42.30;;;;;;5014778;28;20170;-80
2023/04/20 00:54:25;;;;;;;3.00;1.77;;;10.50;42.30;;;;;;5015303;28;20200;-80
2023/04/20 00:56:52;;;;;;;3.95;2.17;;;10.50;42.10;;;;;;5020337;28;20290;-79
2023/04/20 00:59:18;;;;;;;5.85;2.90;;;10.60;42.30;;;;;;5015354;28;20235;-79
2023/04/20 01:01:44;;;;;;;4.38;2.55;;;10.60;42.20;;;;;;5014798;28;20557;-80
2023/04/20 01:04:10;;;;;;;3.60;1.93;;;10.60;42.80;;;;;;5005564;28;20185;-80
2023/04/20 01:06:36;;;;;;;2.67;1.97;;;10.60;42.90;;;;;;5032894;28;20174;-79
2023/04/20 01:09:02;;;;;;;3.87;2.23;;;10.60;42.50;;;;;;4998471;28;20611;-79
2023/04/20 01:11:28;;;;;;;4.03;1.90;;;10.60;42.90;;;;;;5013389;28;20656;-80
2023/04/20 01:13:54;;;;;;;3.00;2.40;;;10.60;42.90;;;;;;5014180;28;20268;-79
2023/04/20 01:16:21;;;;;;;3.90;2.30;;;10.60;43.00;;;;;;5002729;28;20581;-80
2023/04/20 01:18:48;;;;;;;5.28;2.28;;;10.70;43.30;;;;;;5014982;28;20261;-79
2023/04/20 01:21:17;;;;;;;2.90;2.00;;;10.70;42.90;;;;;;4997850;28;20193;-79
2023/04/20 01:23:43;;;;;;;3.58;2.20;;;10.70;43.60;;;;;;4995485;28;20253;-79
2023/04/20 01:26:11;;;;;;;3.65;2.25;;;10.70;43.30;;;;;;4994846;28;20174;-80
2023/04/20 01:28:37;;;;;;;3.10;2.20;;;10.70;43.00;;;;;;4995360;28;20206;-80
2023/04/20 01:31:07;;;;;;;3.90;2.27;;;10.80;43.20;;;;;;5028318;28;20225;-80
2023/04/20 01:33:33;;;;;;;3.50;2.38;;;10.80;43.80;;;;;;5003933;28;20281;-79
2023/04/20 01:35:59;;;;;;;4.10;2.70;;;10.80;43.30;;;;;;4998432;28;20178;-80
2023/04/20 01:38:26;;;;;;;7.43;3.10;;;10.80;44.20;;;;;;5032001;28;20170;-80
2023/04/20 01:40:53;;;;;;;3.97;2.00;;;10.80;44.20;;;;;;4981962;28;20204;-80
2023/04/20 01:43:19;;;;;;;3.63;1.98;;;10.80;44.40;;;;;;5014113;28;20601;-80
2023/04/20 01:45:45;;;;;;;3.53;3.10;;;10.70;44.00;;;;;;4997874;28;20185;-80
2023/04/20 01:48:11;;;;;;;3.80;2.10;;;10.70;44.30;;;;;;5013682;28;20810;-79
2023/04/20 01:50:37;;;;;;;2.80;1.73;;;10.70;44.30;;;;;;4997918;28;20636;-80
2023/04/20 01:53:03;;;;;;;2.73;1.83;;;10.70;44.20;;;;;;4997930;28;20170;-80
2023/04/20 01:55:28;;;;;;;3.47;2.40;;;10.70;45.20;;;;;;5014042;28;20583;-79
2023/04/20 01:57:54;;;;;;;3.67;2.07;;;10.70;44.90;;;;;;5032100;28;20177;-79
2023/04/20 02:00:20;;;;;;;4.67;3.10;;;10.70;44.80;;;;;;4997320;28;20252;-79
2023/04/20 02:02:45;;;;;;;3.20;2.40;;;10.70;44.60;;;;;;5032292;28;20265;-78
2023/04/20 02:05:11;;;;;;;8.40;3.03;;;10.80;44.80;;;;;;4997665;28;20261;-79
2023/04/20 02:07:37;;;;;;;3.43;1.47;;;10.80;44.80;;;;;;4997776;28;20177;-78
2023/04/20 02:10:03;;;;;;;2.93;1.73;;;10.80;44.80;;;;;;5016948;28;20206;-79
2023/04/20 02:12:29;;;;;;;4.40;3.22;;;10.80;44.90;;;;;;5034505;28;20280;-79
2023/04/20 02:14:56;;;;;;;4.50;2.55;;;10.80;45.40;;;;;;4997620;28;20257;-79
2023/04/20 02:17:23;;;;;;;3.73;2.83;;;10.80;45.30;;;;;;5013500;28;20273;-79
2023/04/20 02:19:48;;;;;;;3.75;2.28;;;10.80;45.50;;;;;;5013975;28;20201;-79
2023/04/20 02:22:15;;;;;;;7.00;2.77;;;10.80;45.10;;;;;;5017729;28;20239;-79
2023/04/20 02:24:42;;;;;;;2.35;1.80;;;10.70;45.20;;;;;;5030446;28;20588;-80
2023/04/20 02:27:09;;;;;;;4.00;2.05;;;10.80;45.80;;;;;;5030351;28;20182;-80
2023/04/20 02:29:35;;;;;;;3.88;2.40;;;10.80;45.20;;;;;;5029859;28;20239;-80
2023/04/20 02:32:00;;;;;;;3.20;2.40;;;10.80;45.10;;;;;;5030225;28;20260;-80
2023/04/20 02:34:26;;;;;;;3.00;1.93;;;10.80;45.60;;;;;;5031295;28;20260;-80
2023/04/20 02:36:55;;;;;;;3.25;1.70;;;10.80;45.30;;;;;;5029975;28;20169;-80
2023/04/20 02:39:21;;;;;;;3.10;2.10;;;10.80;45.40;;;;;;5030946;28;20222;-79
2023/04/20 02:41:47;;;;;;;3.20;2.47;;;10.80;45.40;;;;;;5030106;28;20284;-80
2023/04/20 02:44:12;;;;;;;3.60;1.80;;;10.80;45.40;;;;;;5013821;28;20169;-79
2023/04/20 02:46:38;;;;;;;3.63;2.00;;;10.80;45.50;;;;;;5029326;28;20183;-80
2023/04/20 02:49:04;;;;;;;3.40;1.80;;;10.80;45.30;;;;;;5020757;28;20537;-79
2023/04/20 02:51:34;;;;;;;4.53;2.10;;;10.80;45.30;;;;;;5029268;28;20964;-80
2023/04/20 02:54:01;;;;;;;4.03;2.05;;;10.80;45.30;;;;;;5030282;28;20645;-79
2023/04/20 02:56:28;;;;;;;4.60;1.85;;;10.80;45.20;;;;;;5013032;28;20212;-80
2023/04/20 02:58:58;;;;;;;6.03;2.65;;;10.80;45.30;;;;;;5029931;28;20176;-80
2023/04/20 03:01:49;;;;;;;3.65;1.73;;;10.80;45.20;;;;;;5029096;28;20198;-79
2023/04/20 03:04:19;;;;;;;3.35;1.92;;;10.80;45.10;;;;;;5029956;28;20205;-79
2023/04/20 03:07:04;;;;;;;3.58;2.35;;;10.80;45.10;;;;;;5012815;28;20226;-80
2023/04/20 03:09:33;;;;;;;2.70;2.35;;;10.80;45.00;;;;;;5029466;28;20205;-79
2023/04/20 03:12:05;;;;;;;5.65;2.33;;;10.70;44.90;;;;;;5003815;28;20212;-79
2023/04/20 03:14:50;;;;;;;3.55;2.20;;;10.70;45.00;;;;;;5019606;28;20185;-79
2023/04/20 03:17:19;;;;;;;3.60;2.30;;;10.70;45.30;;;;;;5023106;28;20178;-79
2023/04/20 03:19:45;;;;;;;2.87;1.90;;;10.70;44.90;;;;;;5012615;28;20546;-79
2023/04/20 03:22:11;;;;;;;3.65;1.80;;;10.70;44.90;;;;;;4996511;28;20657;-79
2023/04/20 03:24:36;;;;;;;4.77;2.03;;;10.70;44.90;;;;;;5017655;28;20245;-78
2023/04/20 03:27:11;;;;;;;3.20;1.58;;;10.60;44.90;;;;;;5013119;28;20211;-78
2023/04/20 03:30:00;;;;;;;2.78;1.67;;;10.60;45.20;;;;;;4996311;28;20209;-78
2023/04/20 03:32:27;;;;;;;5.13;2.60;;;10.60;44.80;;;;;;5012945;28;20169;-77
2023/04/20 03:34:53;;;;;;;2.90;1.37;;;10.60;44.80;;;;;;5016088;28;20177;-78
2023/04/20 03:37:19;;;;;;;2.70;1.95;;;10.60;44.70;;;;;;4999996;28;20174;-78
2023/04/20 03:39:46;;;;;;;2.88;2.03;;;10.60;44.70;;;;;;5016794;28;20178;-79
2023/04/20 03:42:11;;;;;;;3.63;2.73;;;10.50;44.80;;;;;;5000095;28;20268;-78
2023/04/20 03:44:37;;;;;;;3.80;2.17;;;10.50;45.00;;;;;;5000266;28;20212;-78
2023/04/20 03:47:04;;;;;;;3.97;1.83;;;10.50;44.70;;;;;;5016121;28;20185;-78
2023/04/20 03:49:31;;;;;;;2.63;1.85;;;10.50;44.90;;;;;;5016583;28;20224;-77
2023/04/20 03:51:56;;;;;;;2.43;1.67;;;10.50;44.60;;;;;;5034520;28;20173;-78
2023/04/20 03:54:22;;;;;;;4.63;1.97;;;10.40;44.70;;;;;;4999722;28;20162;-78
2023/04/20 03:56:49;;;;;;;4.13;1.92;;;10.40;44.80;;;;;;5016024;28;20181;-78
2023/04/20 03:59:16;;;;;;;3.10;1.85;;;10.40;44.60;;;;;;5016248;28;20208;-78
2023/04/20 04:01:45;;;;;;;3.05;2.05;;;10.40;44.80;;;;;;5006043;28;20223;-77
2023/04/20 04:04:12;;;;;;;4.53;2.13;;;10.40;44.80;;;;;;5032514;28;20181;-77
2023/04/20 04:06:37;;;;;;;3.07;1.50;;;10.40;44.90;;;;;;5034969;28;20178;-76
2023/04/20 04:09:03;;;;;;;5.07;2.07;;;10.40;44.80;;;;;;5000079;28;20204;-78
2023/04/20 04:11:29;;;;;;;4.57;2.17;;;10.30;45.10;;;;;;5015777;28;20284;-77
2023/04/20 04:13:59;;;;;;;3.53;2.13;;;10.30;45.10;;;;;;4999618;28;20634;-77
2023/04/20 04:16:25;;;;;;;2.30;1.80;;;10.30;45.00;;;;;;4999128;28;20173;-77
2023/04/20 04:18:51;;;;;;;3.60;1.33;;;10.30;45.00;;;;;;4999969;28;20173;-77
2023/04/20 04:21:17;;;;;;;3.60;1.65;;;10.30;45.00;;;;;;5014708;28;20633;-78
2023/04/20 04:23:50;;;;;;;3.30;1.60;;;10.30;45.10;;;;;;5024120;28;20193;-78
2023/04/20 04:26:48;;;;;;;2.35;1.60;;;10.30;45.40;;;;;;4996285;28;20257;-78
2023/04/20 04:29:14;;;;;;;3.60;2.05;;;10.30;45.40;;;;;;5025215;28;20279;-78
2023/04/20 04:31:40;;;;;;;2.47;2.28;;;10.30;45.60;;;;;;5015826;28;20225;-78
2023/04/20 04:34:13;;;;;;;8.30;2.25;;;10.20;45.20;;;;;;4999610;28;20170;-78
2023/04/20 04:36:43;;;;;;;3.83;2.28;;;10.30;45.60;;;;;;5015578;28;20265;-78
2023/04/20 04:39:13;;;;;;;4.90;2.45;;;10.30;45.70;;;;;;5022045;28;20177;-78
2023/04/20 04:41:46;;;;;;;2.88;1.80;;;10.30;45.80;;;;;;4999581;28;20296;-78
2023/04/20 04:44:34;;;;;;;3.17;2.00;;;10.30;46.40;;;;;;5014311;28;20212;-78
2023/04/20 04:47:04;;;;;;;2.88;2.10;;;10.20;47.70;;;;;;4999040;28;20201;-78
2023/04/20 04:49:31;;;;;;;4.07;2.28;;;10.20;46.80;;;;;;5015333;28;20288;-78
2023/04/20 04:51:57;;;;;;;3.13;1.77;;;10.30;46.50;;;;;;4999393;28;20178;-78
2023/04/20 04:58:45;;;;;;;3.28;1.77;;;10.30;46.90;;;;;;5035920;28;20218;-77
2023/04/20 05:01:11;;;;;;;3.38;1.90;;;10.20;49.50;;;;;;5021694;28;20244;-78
2023/04/20 05:03:36;;;;;;;5.47;2.57;;;10.20;47.30;;;;;;5015488;28;20631;-78
2023/04/20 05:06:02;;;;;;;2.90;2.07;;;10.20;47.90;;;;;;5014871;28;20177;-78
2023/04/20 05:08:28;;;;;;;3.80;2.10;;;10.10;47.40;;;;;;5033189;28;20216;-78
2023/04/20 05:10:55;;;;;;;3.43;2.10;;;10.10;47.50;;;;;;5014551;28;20198;-78
2023/04/20 05:13:21;;;;;;;4.00;2.45;;;10.10;48.90;;;;;;5014951;28;20260;-78
2023/04/20 05:15:47;;;;;;;4.10;2.60;;;10.10;51.10;;;;;;5020196;28;20204;-78
2023/04/20 05:18:12;;;;;;;8.93;2.77;;;10.00;50.40;;;;;;5014995;28;20178;-78
2023/04/20 05:20:38;;;;;;;4.60;2.20;;;10.00;49.30;;;;;;5014930;28;20194;-78
2023/04/20 05:23:04;;;;;;;3.33;1.93;;;10.00;50.00;;;;;;5014617;28;20709;-78
2023/04/20 05:25:31;;;;;;;3.50;1.87;;;9.90;50.10;;;;;;5033067;28;20174;-78
2023/04/20 05:27:57;;;;;;;5.07;2.30;;;9.90;50.20;;;;;;5032507;28;20178;-78
2023/04/20 05:30:23;;;;;;;2.60;2.30;;;9.80;50.50;;;;;;5032726;28;20204;-78
2023/04/20 05:32:49;;;;;;;3.90;2.13;;;9.80;50.80;;;;;;5014653;28;20653;-78
2023/04/20 05:35:15;;;;;;;4.95;2.70;;;9.70;51.60;;;;;;5032304;28;20197;-78
2023/04/20 05:37:41;;;;;;;3.83;2.27;;;9.70;53.00;;;;;;4998293;28;20650;-78
2023/04/20 05:40:08;;;;;;;5.10;3.03;;;9.70;52.30;;;;;;5014146;28;20695;-77
2023/04/20 05:42:34;;;;;;;3.63;2.40;;;9.60;52.70;;;;;;5014635;28;20266;-77
2023/04/20 05:44:59;;;;;;;4.57;2.00;;;9.60;52.90;;;;;;5032046;28;20201;-78
2023/04/20 05:47:28;;;;;;;3.77;2.47;;;9.60;53.60;;;;;;5014586;28;20181;-77
2023/04/20 05:49:54;;;;;;;4.10;2.20;;;9.60;53.90;;;;;;5014069;28;20721;-77
2023/04/20 05:52:19;;;;;;;4.30;3.10;;;9.60;54.50;;;;;;5017343;28;20170;-78
2023/04/20 05:54:45;;;;;;;5.13;2.90;;;9.60;55.30;;;;;;5016873;28;20212;-78
2023/04/20 05:57:11;;;;;;;5.60;3.10;;;9.60;55.00;;;;;;5013677;28;20170;-78
2023/04/20 05:59:36;;;;;;;5.80;2.17;;;9.60;56.00;;;;;;5032067;28;20638;-78
2023/04/20 06:02:02;;;;;;;2.83;2.30;;;9.70;56.00;;;;;;5013892;28;20634;-78
2023/04/20 06:04:29;;;;;;;2.63;2.07;;;9.70;56.60;;;;;;4998071;28;21259;-78
2023/04/20 06:06:55;;;;;;;2.90;2.13;;;9.70;56.60;;;;;;5013639;28;20228;-78
2023/04/20 06:09:20;;;;;;;9.83;3.07;;;9.70;56.60;;;;;;5032260;28;20229;-78
2023/04/20 06:11:46;;;;;;;5.13;2.73;;;9.70;57.10;;;;;;5031689;28;20604;-78
2023/04/20 06:14:13;;;;;;;5.47;3.23;;;9.70;57.20;;;;;;5013559;28;20201;-77
2023/04/20 06:16:39;;;;;;;4.95;3.13;;;9.70;57.10;;;;;;5031640;28;20173;-77
2023/04/20 06:19:05;;;;;;;3.30;2.25;;;9.70;57.20;;;;;;5013738;28;20205;-78
2023/04/20 06:21:35;;;;;;;3.50;3.07;;;9.80;57.30;;;;;;5013410;28;20696;-78
2023/04/20 06:24:01;;;;;;;7.05;4.22;;;9.80;58.10;;;;;;5030588;28;20564;-77
2023/04/20 06:26:27;;;;;;;4.00;2.65;;;9.80;58.10;;;;;;5013620;28;20177;-78
2023/04/20 06:28:52;;;;;;;4.37;2.97;;;9.80;58.20;;;;;;5031252;28;20518;-77
2023/04/20 06:31:19;;;;;;;5.67;2.70;;;9.90;58.40;;;;;;5015403;28;21207;-77
2023/04/20 06:33:47;;;;;;;4.07;3.05;;;9.90;58.80;;;;;;5014064;28;20181;-77
2023/04/20 06:36:13;;;;;;;7.15;3.70;;;9.90;58.90;;;;;;5030968;28;20753;-78
2023/04/20 06:38:39;;;;;;;4.50;3.17;;;9.90;60.00;;;;;;4997683;28;20282;-78
2023/04/20 06:41:05;;;;;;;4.60;3.17;;;9.90;60.70;;;;;;5030881;28;20531;-79
2023/04/20 06:43:30;;;;;;;5.73;2.70;;;9.80;61.30;;;;;;5013680;28;20584;-78
2023/04/20 06:45:56;;;;;;;3.17;2.87;;;9.80;60.30;;;;;;5030731;28;20188;-78
2023/04/20 06:48:22;;;;;;;3.90;3.10;;;9.70;61.90;;;;;;5031191;28;20169;-78
2023/04/20 06:50:49;;;;;;;3.70;2.90;;;9.70;62.50;;;;;;5013485;28;20329;-77
2023/04/20 06:53:16;;;;;;;6.35;3.15;;;9.60;63.10;;;;;;5012931;28;20174;-77
2023/04/20 06:55:42;;;;;;;9.02;3.30;;;9.60;63.30;;;;;;5013237;28;20161;-77
2023/04/20 06:58:07;;;;;;;4.13;3.50;;;9.60;64.30;;;;;;5012836;28;20173;-78
2023/04/20 07:00:34;;;;;;;5.87;3.67;;;9.60;65.30;;;;;;5013280;28;20529;-78
2023/04/20 07:03:00;;;;;;;4.03;2.92;;;9.50;66.20;;;;;;5018418;28;20177;-77
2023/04/20 07:05:27;;;;;;;3.30;2.80;;;9.50;67.30;;;;;;5029598;28;20184;-78
2023/04/20 07:07:53;;;;;;;7.97;3.90;;;9.50;68.10;;;;;;5034809;28;20166;-78
2023/04/20 07:10:19;;;;;;;4.07;3.53;;;9.50;68.90;;;;;;5030752;28;20201;-78
2023/04/20 07:12:45;;;;;;;6.28;3.95;;;9.40;71.80;;;;;;5029265;28;20177;-78
2023/04/20 07:15:11;;;;;;;4.47;3.30;;;9.40;71.80;;;;;;5030646;28;20174;-78
2023/04/20 07:17:37;;;;;;;5.97;3.05;;;9.30;79.30;;;;;;5030906;28;20216;-78
2023/04/20 07:20:09;;;;;;;5.63;3.10;;;9.30;78.50;;;;;;5029135;28;20245;-77
2023/04/20 07:22:36;;;;;;;5.18;3.55;;;9.20;79.10;;;;;;5030652;28;20596;-77
2023/04/20 07:25:07;;;;;;;7.15;4.35;;;9.20;80.20;;;;;;4996480;28;20173;-78
2023/04/20 07:27:39;;;;;;;3.63;3.33;;;9.20;82.70;;;;;;5012994;28;20196;-77
2023/04/20 07:30:07;;;;;;;3.97;3.25;;;9.20;84.10;;;;;;5030264;28;20220;-78
2023/04/20 07:32:34;;;;;;;3.58;3.15;;;9.20;84.40;;;;;;5012851;28;20185;-79
2023/04/20 07:34:59;;;;;;;5.40;3.85;;;9.30;87.00;;;;;;5013089;28;20177;-79
2023/04/20 07:37:26;;;;;;;5.10;3.30;;;9.30;91.30;;;;;;5012453;28;20806;-78
2023/04/20 07:39:52;;;;;;;3.13;2.47;;;9.30;91.30;;;;;;5013158;28;20694;-78
2023/04/20 07:42:19;;;;;;;3.20;2.73;;;9.40;91.60;;;;;;5012463;28;20177;-77
2023/04/20 07:44:44;;;;;;;4.53;3.50;;;9.40;92.30;;;;;;5031409;28;21134;-77
2023/04/20 07:47:11;;;;;;;4.47;3.08;;;9.50;92.80;;;;;;5011960;28;20209;-78
2023/04/20 07:49:39;;;;;;;3.67;2.90;;;9.60;93.50;;;;;;5030581;28;20229;-77
2023/04/20 07:52:05;;;;;;;4.00;3.67;;;9.70;95.40;;;;;;5012700;28;20914;-78
2023/04/20 07:54:31;;;;;;;3.70;2.50;;;9.80;95.10;;;;;;5030588;28;20274;-78
2023/04/20 07:56:58;;;;;;;3.05;2.75;;;9.90;96.80;;;;;;5012662;28;20589;-78
2023/04/20 07:59:23;;;;;;;4.18;2.53;;;10.00;96.40;;;;;;4995619;28;20186;-76
2023/04/20 08:01:49;;;;;;;2.60;2.30;;;10.10;96.90;;;;;;5012518;28;20263;-78
2023/04/20 08:04:16;;;;;;;2.83;1.93;;;10.10;96.70;;;;;;5030033;28;20591;-77
2023/04/20 08:06:42;;;;;;;2.53;2.10;;;10.20;96.90;;;;;;5030151;28;20252;-77
2023/04/20 08:09:07;;;;;;;2.22;1.85;;;10.20;97.30;;;;;;5012232;28;20273;-78
2023/04/20 08:11:34;;;;;;;3.03;1.93;;;10.30;97.70;;;;;;5030134;28;20684;-78
2023/04/20 08:14:00;;;;;;;4.88;2.38;;;10.30;99.50;;;;;;5011931;28;20178;-78
2023/04/20 08:16:26;;;;;;;2.28;1.50;;;10.30;98.80;;;;;;5012016;28;20188;-78
2023/04/20 08:18:52;;;;;;;3.07;1.87;;;10.30;98.80;;;;;;5030487;28;20165;-78
2023/04/20 08:21:21;;;;;;;2.53;1.70;;;10.40;99.10;;;;;;5014878;28;20198;-78
2023/04/20 08:23:47;;;;;;;2.58;2.33;;;10.40;99.30;;;;;;5033876;28;20184;-78
2023/04/20 08:26:16;;;;;;;2.53;2.00;;;10.50;99.90;;;;;;5015454;28;20170;-77
2023/04/20 08:28:43;;;;;;;2.10;1.70;;;10.50;99.80;;;;;;5034257;28;20664;-78
2023/04/20 08:31:12;;;;;;;3.50;1.65;;;10.50;99.80;;;;;;5033346;28;20989;-78
2023/04/20 08:33:38;;;;;;;2.00;1.70;;;10.50;99.90;;;;;;5016189;28;20661;-77
2023/04/20 08:36:04;;;;;;;2.80;2.40;;;10.50;99.90;;;;;;5015729;28;20170;-77
2023/04/20 08:38:29;;;;;;;4.57;1.87;;;10.50;99.90;;;;;;5026758;23;20241;-82
2023/04/20 08:40:55;;;;;;;1.80;1.53;;;10.40;99.90;;;;;;5002546;28;20584;-81
2023/04/20 08:43:21;;;;;;;2.20;1.80;;;10.40;99.90;;;;;;5035412;28;20703;-81
2023/04/20 08:45:50;;;;;;;3.13;1.60;;;10.40;99.90;;;;;;5037312;28;20252;-80
2023/04/20 08:48:18;;;;;;;2.05;1.55;;;10.40;99.90;;;;;;5018024;28;20615;-81
2023/04/20 08:50:46;;;;;;;1.98;1.70;;;10.40;99.90;;;;;;5019854;28;20609;-82
2023/04/20 08:53:13;;;;;;;2.25;1.60;;;10.40;99.90;;;;;;5036613;28;20174;-81
2023/04/20 08:55:38;;;;;;;2.95;1.50;;;10.40;99.90;;;;;;5016318;28;20190;-81
2023/04/20 08:58:04;;;;;;;2.10;1.67;;;10.40;99.90;;;;;;5017662;28;20194;-81
2023/04/20 09:00:30;;;;;;;2.67;1.43;;;10.50;99.90;;;;;;5019218;28;20744;-82
2023/04/20 09:02:57;;;;;;;2.90;1.73;;;10.60;99.90;;;;;;5019067;28;20194;-81
2023/04/20 09:05:27;;;;;;;2.22;1.90;;;10.70;99.90;;;;;;5019388;28;20277;-81
2023/04/20 09:07:56;;;;;;;2.13;1.75;;;10.80;99.90;;;;;;5016913;28;20175;-82
2023/04/20 09:10:24;;;;;;;2.63;2.00;;;10.80;99.90;;;;;;5013782;28;20661;-82
2023/04/20 09:12:51;;;;;;;2.13;1.60;;;10.90;99.90;;;;;;4996268;28;20285;-80
2023/04/20 09:15:30;;;;;;;2.10;1.80;;;10.90;99.90;;;;;;4995872;28;20175;-80
2023/04/20 09:17:56;;;;;;;2.10;1.73;;;10.90;99.90;;;;;;5013277;28;20201;-80
2023/04/20 09:20:30;;;;;;;3.53;2.10;;;11.00;99.90;;;;;;4979502;28;20200;-80
2023/04/20 09:22:56;;;;;;;2.47;1.70;;;11.00;99.90;;;;;;4979086;28;20193;-80
2023/04/20 09:25:25;;;;;;;3.20;1.93;;;11.10;99.90;;;;;;4979506;28;20170;-81
2023/04/20 09:27:56;;;;;;;2.15;1.70;;;11.00;99.90;;;;;;4995259;28;20167;-81
2023/04/20 09:30:22;;;;;;;2.30;1.50;;;11.00;99.90;;;;;;4995709;28;20313;-81
2023/04/20 09:32:47;;;;;;;2.20;1.63;;;10.90;99.90;;;;;;4994299;28;20734;-80
2023/04/20 09:35:22;;;;;;;2.23;2.03;;;10.90;99.90;;;;;;4995675;28;21332;-81
2023/04/20 09:37:48;;;;;;;2.05;1.60;;;10.90;99.90;;;;;;4981060;28;20589;-80
2023/04/20 09:40:15;;;;;;;2.47;1.30;;;10.80;99.90;;;;;;5013078;28;20244;-80
2023/04/20 09:42:42;;;;;;;2.92;2.50;;;10.80;99.90;;;;;;4995089;28;20594;-80
2023/04/20 09:45:08;;;;;;;3.40;1.80;;;10.70;99.90;;;;;;4995021;28;20179;-81
2023/04/20 09:47:40;;;;;;;3.78;1.83;;;10.60;99.90;;;;;;4979080;28;20185;-81
2023/04/20 09:50:09;;;;;;;2.90;2.25;;;10.50;99.90;;;;;;5012379;28;20206;-82
2023/04/20 09:52:36;;;;;;;2.80;2.53;;;10.40;99.90;;;;;;5012196;28;20186;-81
2023/04/20 09:55:04;;;;;;;1.80;0.95;;;10.40;99.90;;;;;;4992677;28;20177;-79
2023/04/20 09:57:31;;;;;;;1.70;0.90;;;10.30;99.90;;;;;;4998278;28;20180;-81
2023/04/20 09:59:58;;;;;;;1.88;0.70;;;10.20;99.90;;;;;;5031882;28;20197;-80
2023/04/20 10:02:24;;;;;;;1.48;0.80;;;10.20;99.90;;;;;;5032230;28;20570;-80
2023/04/20 10:04:57;;;;;;;1.73;0.77;;;10.20;99.90;;;;;;5014446;28;20180;-80
2023/04/20 10:07:27;;;;;;;1.30;0.75;;;10.20;99.90;;;;;;5014164;28;21214;-79
2023/04/20 10:10:11;;;;;;;1.77;0.95;;;10.20;99.90;;;;;;5032277;28;20288;-79
2023/04/20 10:12:50;;;;;;;1.30;0.70;;;10.10;99.90;;;;;;5013853;28;20257;-78
2023/04/20 10:15:20;;;;;;;1.48;0.70;;;10.10;99.90;;;;;;5019591;28;20192;-78
2023/04/20 10:17:47;;;;;;;1.30;0.70;;;10.10;99.90;;;;;;5033520;28;20169;-79
2023/04/20 10:20:24;;;;;;;1.40;0.70;;;10.20;99.90;;;;;;5014069;28;20178;-78
2023/04/20 10:22:51;;;;;;;1.50;0.80;;;10.40;99.90;;;;;;4989535;28;20182;-79
2023/04/20 10:25:22;;;;;;;1.48;0.70;;;10.70;99.90;;;;;;4994452;28;20179;-78
2023/04/20 10:27:57;;;;;;;1.67;0.75;;;10.90;99.90;;;;;;4993651;28;20204;-79
2023/04/20 10:30:25;;;;;;;1.40;0.70;;;11.00;99.90;;;;;;4994577;28;20206;-79
2023/04/20 10:33:01;;;;;;;1.30;0.70;;;11.30;99.90;;;;;;5011620;28;20558;-79
2023/04/20 10:35:28;;;;;;;1.45;0.80;;;11.50;99.90;;;;;;4978133;28;20177;-79
2023/04/20 10:37:54;;;;;;;1.40;0.80;;;11.70;99.90;;;;;;4977374;28;20189;-81
2023/04/20 10:40:26;;;;;;;1.50;0.70;;;11.90;99.90;;;;;;5011968;28;20634;-81
2023/04/20 10:42:52;;;;;;;1.35;0.60;;;12.10;99.90;;;;;;4977191;28;20589;-81
2023/04/20 10:45:19;;;;;;;3.03;0.90;;;12.20;99.90;;;;;;5011389;28;20539;-80
2023/04/20 10:47:45;;;;;;;2.13;0.70;;;12.50;99.90;;;;;;4993651;28;20616;-81
2023/04/20 10:50:15;;;;;;;2.53;0.70;;;12.80;99.90;;;;;;5011216;28;20256;-80
2023/04/20 10:52:43;;;;;;;1.40;0.52;;;12.90;99.90;;;;;;4998400;28;20201;-80
2023/04/20 10:55:20;;;;;;;1.40;0.60;;;13.10;99.90;;;;;;4994015;28;20213;-81
2023/04/20 10:57:46;;;;;;;1.70;0.68;;;13.30;99.90;;;;;;4994021;28;20170;-80
2023/04/20 11:00:24;;;;;;;1.20;0.50;;;13.50;99.90;;;;;;4996233;28;20273;-82
2023/04/20 11:02:57;;;;;;;1.33;0.60;;;13.60;99.90;;;;;;4994042;28;20201;-80
2023/04/20 11:05:25;;;;;;;1.70;0.80;;;13.40;99.90;;;;;;4994152;28;20182;-80
2023/04/20 11:07:56;;;;;;;1.95;0.60;;;13.30;99.90;;;;;;4993290;28;20619;-80
2023/04/20 11:10:23;;;;;;;1.20;0.50;;;13.20;99.90;;;;;;5011359;28;20234;-80
2023/04/20 11:12:50;;;;;;;1.20;0.50;;;13.00;99.90;;;;;;4977170;28;20282;-80
2023/04/20 11:15:15;;;;;;;1.60;0.70;;;13.10;99.90;;;;;;4994287;28;20202;-80
2023/04/20 11:17:41;;;;;;;1.40;0.60;;;13.20;99.90;;;;;;4993097;28;20601;-80
2023/04/20 11:20:12;;;;;;;1.23;0.60;;;13.30;99.90;;;;;;4993620;28;20692;-81
2023/04/20 11:22:39;;;;;;;1.87;0.50;;;13.50;99.90;;;;;;4976969;28;20185;-80
2023/04/20 11:25:07;;;;;;;2.35;0.52;;;13.60;99.90;;;;;;4993797;28;20593;-80
2023/04/20 11:27:34;;;;;;;1.23;0.50;;;13.70;99.90;;;;;;4993796;28;20182;-81
2023/04/20 11:30:04;;;;;;;1.20;0.50;;;13.80;99.90;;;;;;4995429;28;20743;-82
2023/04/20 11:32:33;;;;;;;1.30;0.60;;;13.80;99.90;;;;;;5013104;28;20232;-82
2023/04/20 11:35:06;;;;;;;1.92;0.68;;;13.80;99.90;;;;;;5015462;28;20171;-81
2023/04/20 11:37:44;;;;;;;1.80;0.90;;;13.90;99.70;;;;;;5013272;28;20217;-81
2023/04/20 11:40:10;;;;;;;1.60;0.90;;;13.90;98.60;;;;;;4993568;28;20182;-82
2023/04/20 11:42:36;;;;;;;1.37;0.70;;;14.00;99.90;;;;;;4977508;28;20631;-82
2023/04/20 11:45:03;;;;;;;1.60;0.80;;;14.20;99.90;;;;;;4992660;28;20605;-82
2023/04/20 11:47:28;;;;;;;1.30;0.60;;;14.50;99.90;;;;;;4993549;28;21179;-82
2023/04/20 11:49:54;;;;;;;1.20;0.60;;;14.60;99.60;;;;;;5011016;28;20632;-83
2023/04/20 11:52:20;;;;;;;1.30;0.60;;;14.70;98.50;;;;;;4993788;28;20175;-84
2023/04/20 11:54:46;;;;;;;1.53;0.67;;;14.60;96.30;;;;;;4998667;28;20577;-82
2023/04/20 11:57:12;;;;;;;1.63;0.90;;;14.40;96.50;;;;;;4980761;28;20631;-85
2023/04/20 11:59:38;;;;;;;1.50;0.77;;;14.30;96.90;;;;;;5014527;28;20190;-80
2023/04/20 12:02:04;;;;;;;2.20;0.90;;;14.20;96.60;;;;;;5002523;28;20178;-80
2023/04/20 12:04:31;;;;;;;2.90;1.07;;;14.20;98.30;;;;;;5026382;28;20189;-81
2023/04/20 12:06:58;;;;;;;1.60;1.07;;;14.50;99.90;;;;;;5001800;28;20606;-80
2023/04/20 12:09:25;;;;;;;2.07;1.40;;;14.90;99.70;;;;;;5016959;28;20612;-81
2023/04/20 12:11:50;;;;;;;1.80;0.90;;;15.20;99.30;;;;;;5034253;28;20582;-80
2023/04/20 12:14:16;;;;;;;3.00;1.50;;;15.30;97.70;;;;;;5016229;28;20671;-82
2023/04/20 12:16:42;;;;;;;3.20;1.83;;;15.40;98.60;;;;;;5034057;28;20174;-81
2023/04/20 12:19:08;;;;;;;2.37;1.63;;;15.70;96.40;;;;;;5016080;28;21189;-80
2023/04/20 12:21:34;;;;;;;3.80;2.60;;;15.80;96.40;;;;;;5023020;28;20643;-81
2023/04/20 12:23:59;;;;;;;3.40;2.10;;;15.90;95.80;;;;;;5014036;28;20174;-81
2023/04/20 12:26:25;;;;;;;2.30;1.43;;;15.80;94.10;;;;;;4996459;28;20597;-81
2023/04/20 12:28:51;;;;;;;2.17;1.40;;;15.80;94.80;;;;;;4996300;28;20209;-81
2023/04/20 12:31:17;;;;;;;2.33;1.10;;;15.70;93.70;;;;;;4996530;28;20202;-81
2023/04/20 12:33:43;;;;;;;1.90;1.20;;;15.70;93.90;;;;;;4996699;28;20174;-81
2023/04/20 12:36:09;;;;;;;1.90;1.33;;;15.70;94.10;;;;;;4996020;28;20185;-81
2023/04/20 12:38:35;;;;;;;2.53;1.40;;;15.70;93.50;;;;;;4996441;28;20617;-81
2023/04/20 12:41:01;;;;;;;1.90;1.40;;;15.70;93.10;;;;;;4995971;28;20613;-81
2023/04/20 12:43:27;;;;;;;2.23;1.50;;;15.60;93.10;;;;;;5001130;28;20589;-82
2023/04/20 12:45:53;;;;;;;1.80;1.40;;;15.70;93.10;;;;;;4979931;28;21238;-81
2023/04/20 12:48:19;;;;;;;2.43;1.40;;;15.80;91.80;;;;;;4996564;28;20700;-81
2023/04/20 12:50:45;;;;;;;2.40;1.70;;;15.60;91.30;;;;;;4995814;28;20209;-81
2023/04/20 12:53:10;;;;;;;2.93;1.93;;;15.50;90.60;;;;;;5013680;28;21007;-81